createdAt,value
2022-10-14T00:01:07.895Z,15.15
2022-10-14T00:03:35.673Z,16.52
2022-10-14T00:06:14.448Z,16.52
2022-10-14T00:08:42.069Z,16.17
2022-10-14T00:11:17.323Z,17.98
2022-10-14T00:13:44.094Z,16.92
2022-10-14T00:16:23.090Z,18.45
2022-10-14T00:18:50.238Z,16.40
2022-10-14T00:21:17.514Z,16.23
2022-10-14T00:23:44.988Z,16.08
2022-10-14T00:26:20.478Z,15.15
2022-10-14T00:28:47.387Z,16.80
2022-10-14T00:31:14.610Z,17.13
2022-10-14T00:33:41.252Z,15.23
2022-10-14T00:36:09.115Z,15.90
2022-10-14T00:38:36.214Z,15.80
2022-10-14T00:41:03.997Z,16.23
2022-10-14T00:43:50.463Z,16.20
2022-10-14T00:46:17.102Z,15.32
2022-10-14T00:48:43.909Z,15.88
2022-10-14T00:51:11.007Z,15.27
2022-10-14T00:53:42.349Z,16.60
2022-10-14T00:56:14.323Z,15.80
2022-10-14T00:58:41.159Z,15.95
2022-10-14T01:01:08.237Z,16.85
2022-10-14T01:03:35.396Z,17.20
2022-10-14T01:06:31.862Z,17.15
2022-10-14T01:09:10.706Z,17.05
2022-10-14T01:11:37.283Z,17.27
2022-10-14T01:14:14.777Z,18.75
2022-10-14T01:16:50.773Z,16.83
2022-10-14T01:19:45.847Z,17.48
2022-10-14T01:22:23.393Z,16.58
2022-10-14T01:24:52.866Z,15.73
2022-10-14T01:27:40.850Z,16.38
2022-10-14T01:30:12.262Z,16.48
2022-10-14T01:32:47.854Z,17.02
2022-10-14T01:35:26.595Z,17.60
2022-10-14T01:38:24.443Z,16.58
2022-10-14T01:40:57.211Z,17.55
2022-10-14T01:43:27.729Z,16.13
2022-10-14T01:45:56.507Z,16.70
2022-10-14T01:48:37.078Z,18.23
2022-10-14T01:51:11.978Z,18.17
2022-10-14T01:53:43.042Z,17.52
2022-10-14T01:56:12.523Z,18.02
2022-10-14T01:58:41.032Z,17.38
2022-10-14T02:01:09.570Z,17.02
2022-10-14T02:03:45.184Z,18.70
2022-10-14T02:06:30.304Z,14.88
2022-10-14T02:09:25.867Z,16.38
2022-10-14T02:12:14.116Z,16.75
2022-10-14T02:15:02.430Z,15.13
2022-10-14T02:17:49.943Z,16.52
2022-10-14T02:20:26.022Z,15.98
2022-10-14T02:23:01.956Z,15.85
2022-10-14T02:25:38.531Z,16.45
2022-10-14T02:28:08.196Z,15.95
2022-10-14T02:30:40.177Z,14.35
2022-10-14T02:33:07.634Z,16.25
2022-10-14T02:35:36.431Z,15.20
2022-10-14T02:38:04.768Z,17.10
2022-10-14T02:40:47.024Z,14.77
2022-10-14T02:43:14.094Z,14.30
2022-10-14T02:45:42.730Z,14.45
2022-10-14T02:48:10.345Z,15.82
2022-10-14T02:50:37.426Z,14.30
2022-10-14T02:53:04.499Z,15.50
2022-10-14T02:55:31.373Z,14.98
2022-10-14T02:57:57.992Z,15.77
2022-10-14T03:00:24.629Z,14.85
2022-10-14T03:02:51.279Z,14.80
2022-10-14T03:05:17.890Z,15.18
2022-10-14T03:07:44.558Z,12.63
2022-10-14T03:10:11.258Z,12.63
2022-10-14T03:12:38.116Z,13.75
2022-10-14T03:15:05.237Z,13.70
2022-10-14T03:17:32.791Z,13.65
2022-10-14T03:19:59.619Z,13.27
2022-10-14T03:22:26.840Z,12.40
2022-10-14T03:24:53.656Z,13.10
2022-10-14T03:27:20.262Z,12.60
2022-10-14T03:29:47.178Z,12.75
2022-10-14T03:32:14.106Z,13.43
2022-10-14T03:34:40.771Z,13.25
2022-10-14T03:37:07.933Z,12.80
2022-10-14T03:39:34.773Z,12.38
2022-10-14T03:42:01.701Z,10.98
2022-10-14T03:44:28.369Z,13.73
2022-10-14T03:46:55.098Z,12.57
2022-10-14T03:49:21.839Z,12.95
2022-10-14T03:51:48.545Z,13.25
2022-10-14T03:54:15.287Z,13.77
2022-10-14T03:56:41.942Z,11.63
2022-10-14T03:59:08.629Z,13.02
2022-10-14T04:01:35.362Z,12.00
2022-10-14T04:04:02.033Z,11.95
2022-10-14T04:06:28.857Z,11.55
2022-10-14T04:08:55.505Z,11.30
2022-10-14T04:11:22.292Z,11.40
2022-10-14T04:13:48.988Z,12.43
2022-10-14T04:16:15.660Z,12.18
2022-10-14T04:18:42.317Z,11.93
2022-10-14T04:21:12.603Z,12.60
2022-10-14T04:23:39.309Z,13.75
2022-10-14T04:26:09.918Z,12.23
2022-10-14T04:28:37.524Z,12.38
2022-10-14T04:31:04.912Z,12.88
2022-10-14T04:33:31.856Z,12.52
2022-10-14T04:36:00.107Z,13.13
2022-10-14T04:38:27.453Z,12.93
2022-10-14T04:40:54.389Z,14.02
2022-10-14T04:43:21.507Z,14.10
2022-10-14T04:45:48.986Z,13.98
2022-10-14T04:48:16.712Z,12.57
2022-10-14T04:50:43.397Z,13.02
2022-10-14T04:53:13.422Z,12.40
2022-10-14T04:55:40.806Z,13.43
2022-10-14T04:58:07.626Z,13.68
2022-10-14T05:00:34.325Z,14.30
2022-10-14T05:03:00.972Z,13.98
2022-10-14T05:05:27.639Z,14.15
2022-10-14T05:07:54.370Z,12.93
2022-10-14T05:10:21.168Z,14.60
2022-10-14T05:12:48.537Z,12.85
2022-10-14T05:15:15.641Z,14.38
2022-10-14T05:17:44.771Z,14.43
2022-10-14T05:20:12.323Z,14.82
2022-10-14T05:22:39.632Z,15.43
2022-10-14T05:25:07.069Z,15.07
2022-10-14T05:27:33.763Z,15.27
2022-10-14T05:30:00.425Z,16.23
2022-10-14T05:32:27.122Z,17.52
2022-10-14T05:34:53.729Z,14.55
2022-10-14T05:37:20.499Z,16.60
2022-10-14T05:39:47.115Z,16.67
2022-10-14T05:42:13.719Z,16.13
2022-10-14T05:44:41.851Z,15.70
2022-10-14T05:47:10.268Z,16.23
2022-10-14T05:49:37.009Z,15.07
2022-10-14T05:52:03.945Z,14.18
2022-10-14T05:54:30.649Z,14.60
2022-10-14T05:56:57.545Z,16.35
2022-10-14T05:59:24.219Z,14.75
2022-10-14T06:01:51.205Z,16.05
2022-10-14T06:04:20.004Z,15.15
2022-10-14T06:06:46.753Z,16.35
2022-10-14T06:09:13.928Z,15.60
2022-10-14T06:11:40.979Z,14.40
2022-10-14T06:14:07.877Z,15.43
2022-10-14T06:16:34.939Z,14.77
2022-10-14T06:19:01.798Z,13.40
2022-10-14T06:21:28.678Z,15.80
2022-10-14T06:23:55.435Z,15.75
2022-10-14T06:26:22.077Z,15.27
2022-10-14T06:28:48.854Z,16.65
2022-10-14T06:31:15.583Z,16.08
2022-10-14T06:33:44.106Z,16.92
2022-10-14T06:36:10.911Z,16.38
2022-10-14T06:38:37.660Z,16.13
2022-10-14T06:41:04.859Z,17.05
2022-10-14T06:43:31.636Z,17.17
2022-10-14T06:45:58.944Z,16.27
2022-10-14T06:48:25.658Z,16.40
2022-10-14T06:50:52.958Z,16.33
2022-10-14T06:53:19.613Z,18.02
2022-10-14T06:55:46.610Z,16.10
2022-10-14T06:58:13.331Z,17.10
2022-10-14T07:00:42.217Z,16.77
2022-10-14T07:03:12.349Z,17.35
2022-10-14T07:05:39.054Z,16.63
2022-10-14T07:08:06.678Z,16.65
2022-10-14T07:10:34.711Z,17.33
2022-10-14T07:13:01.561Z,18.23
2022-10-14T07:15:31.263Z,17.02
2022-10-14T07:18:00.517Z,16.63
2022-10-14T07:20:27.729Z,17.60
2022-10-14T07:22:57.364Z,16.35
2022-10-14T07:25:23.978Z,17.55
2022-10-14T07:27:52.948Z,17.33
2022-10-14T07:30:20.346Z,16.95
2022-10-14T07:32:47.087Z,17.48
2022-10-14T07:35:13.832Z,16.92
2022-10-14T07:37:40.550Z,17.15
2022-10-14T07:40:08.384Z,17.15
2022-10-14T07:42:35.132Z,18.23
2022-10-14T07:45:01.893Z,16.30
2022-10-14T07:47:28.578Z,17.45
2022-10-14T07:49:55.374Z,16.90
2022-10-14T07:52:22.165Z,17.00
2022-10-14T07:54:48.909Z,19.23
2022-10-14T07:57:16.774Z,17.42
2022-10-14T07:59:43.590Z,17.55
2022-10-14T08:02:11.820Z,16.08
2022-10-14T08:04:38.838Z,18.00
2022-10-14T08:07:05.519Z,18.02
2022-10-14T08:09:35.849Z,17.10
2022-10-14T08:12:02.822Z,17.65
2022-10-14T08:14:29.728Z,15.93
2022-10-14T08:16:56.398Z,17.50
2022-10-14T08:19:23.603Z,18.05
2022-10-14T08:21:50.266Z,17.08
2022-10-14T08:24:17.089Z,16.55
2022-10-14T08:29:41.041Z,15.23
2022-10-14T08:32:07.894Z,16.50
2022-10-14T08:34:34.637Z,16.13
2022-10-14T08:37:02.358Z,17.02
2022-10-14T08:39:29.026Z,16.05
2022-10-14T08:42:11.355Z,16.38
2022-10-14T08:44:58.517Z,16.92
2022-10-14T08:47:48.837Z,15.27
2022-10-14T08:50:38.967Z,16.02
2022-10-14T08:53:29.143Z,13.90
2022-10-14T08:56:17.950Z,15.55
2022-10-14T08:58:51.547Z,15.70
2022-10-14T09:01:32.343Z,15.85
2022-10-14T09:04:03.183Z,15.85
2022-10-14T09:06:32.400Z,16.00
2022-10-14T09:09:08.852Z,16.20
2022-10-14T09:11:41.615Z,16.42
2022-10-14T09:14:14.702Z,15.02
2022-10-14T09:16:42.473Z,14.98
2022-10-14T09:19:47.073Z,14.38
2022-10-14T09:22:15.501Z,13.20
2022-10-14T09:24:44.965Z,14.25
2022-10-14T09:27:23.547Z,12.02
2022-10-14T09:29:53.390Z,11.93
2022-10-14T09:32:35.764Z,12.23
2022-10-14T09:35:04.025Z,12.07
2022-10-14T09:37:39.735Z,12.05
2022-10-14T09:42:45.201Z,11.55
2022-10-14T09:45:15.765Z,11.48
2022-10-14T09:47:49.709Z,11.35
2022-10-14T09:50:23.270Z,11.10
2022-10-14T09:53:01.769Z,11.40
2022-10-14T09:55:29.560Z,10.63
2022-10-14T09:58:17.438Z,9.82
2022-10-14T10:00:46.422Z,9.40
2022-10-14T10:03:29.826Z,9.20
2022-10-14T10:06:01.297Z,7.70
2022-10-14T10:08:28.156Z,7.13
2022-10-14T10:11:06.708Z,7.78
2022-10-14T10:13:43.572Z,6.40
2022-10-14T10:16:40.759Z,7.38
2022-10-14T10:19:51.633Z,6.82
2022-10-14T10:25:21.869Z,6.68
2022-10-14T10:27:49.594Z,6.93
2022-10-14T10:30:22.410Z,6.35
2022-10-14T10:33:07.184Z,6.93
2022-10-14T10:35:50.350Z,5.72
2022-10-14T10:38:35.425Z,5.95
2022-10-14T10:41:20.713Z,5.38
2022-10-14T10:43:55.138Z,6.20
2022-10-14T10:46:34.037Z,6.97
2022-10-14T10:49:21.282Z,6.00
2022-10-14T10:52:09.848Z,6.32
2022-10-14T10:58:10.014Z,5.82
2022-10-14T11:01:01.992Z,5.55
2022-10-14T11:04:01.751Z,6.03
2022-10-14T11:07:08.286Z,5.93
2022-10-14T11:10:00.618Z,5.57
2022-10-14T11:12:38.133Z,5.45
2022-10-14T11:15:32.610Z,7.30
2022-10-14T11:18:52.877Z,5.00
2022-10-14T11:21:33.491Z,5.07
2022-10-14T11:24:27.861Z,4.90
2022-10-14T11:26:57.944Z,4.60
2022-10-14T11:29:46.278Z,4.88
2022-10-14T11:32:41.225Z,5.15
2022-10-14T11:35:30.095Z,5.28
2022-10-14T11:38:24.336Z,5.00
2022-10-14T11:41:09.667Z,4.80
2022-10-14T11:54:17.138Z,4.18
2022-10-14T11:57:09.573Z,4.65
2022-10-14T12:00:03.600Z,4.15
2022-10-14T12:02:45.136Z,4.07
2022-10-14T12:05:51.447Z,4.13
2022-10-14T12:08:35.858Z,4.47
2022-10-14T12:11:28.195Z,4.70
2022-10-14T12:14:06.177Z,5.18
2022-10-14T12:16:34.087Z,4.63
2022-10-14T12:19:01.222Z,5.35
2022-10-14T12:21:31.260Z,5.28
2022-10-14T12:24:11.745Z,5.22
2022-10-14T12:26:55.377Z,5.70
2022-10-14T12:29:28.635Z,5.88
2022-10-14T12:32:05.147Z,5.90
2022-10-14T12:34:42.670Z,5.38
2022-10-14T12:37:27.428Z,5.75
2022-10-14T12:40:06.990Z,6.00
2022-10-14T12:42:39.339Z,5.65
2022-10-14T12:45:23.251Z,6.00
2022-10-14T12:48:20.224Z,5.95
2022-10-14T12:50:49.196Z,5.60
2022-10-14T12:53:28.290Z,5.95
2022-10-14T12:56:00.884Z,5.28
2022-10-14T12:58:35.023Z,5.47
2022-10-14T13:01:31.034Z,5.00
2022-10-14T13:04:08.505Z,5.05
2022-10-14T13:06:37.436Z,5.07
2022-10-14T13:09:13.144Z,4.68
2022-10-14T13:14:26.111Z,4.47
2022-10-14T13:17:02.509Z,4.28
2022-10-14T13:19:35.182Z,5.03
2022-10-14T13:22:03.800Z,5.30
2022-10-14T13:24:40.057Z,5.35
2022-10-14T13:27:55.305Z,5.28
2022-10-14T13:31:05.589Z,5.13
2022-10-14T13:33:49.518Z,5.70
2022-10-14T13:36:26.747Z,5.65
2022-10-14T13:38:58.494Z,5.60
2022-10-14T13:41:30.720Z,5.13
2022-10-14T13:44:00.909Z,5.22
2022-10-14T13:46:44.770Z,6.93
2022-10-14T13:49:33.801Z,5.22
2022-10-14T13:52:04.854Z,5.75
2022-10-14T13:54:31.958Z,5.00
2022-10-14T14:00:39.762Z,5.35
2022-10-14T14:02:46.334Z,4.90
2022-10-14T14:05:19.448Z,4.68
2022-10-14T14:10:42.589Z,5.10
2022-10-14T14:13:19.026Z,4.47
2022-10-14T14:15:51.261Z,4.32
2022-10-14T14:18:56.174Z,4.57
2022-10-14T14:21:28.204Z,3.83
2022-10-14T14:23:59.397Z,4.72
2022-10-14T14:26:40.226Z,4.13
2022-10-14T14:29:16.963Z,4.03
2022-10-14T14:32:05.449Z,3.85
2022-10-14T14:34:36.234Z,3.70
2022-10-14T14:37:25.081Z,4.03
2022-10-14T14:39:57.667Z,5.65
2022-10-14T14:42:27.694Z,6.53
2022-10-14T14:45:02.110Z,6.50
2022-10-14T14:47:29.633Z,6.80
2022-10-14T14:50:25.019Z,6.30
2022-10-14T14:52:48.742Z,6.75
2022-10-14T14:55:40.458Z,7.50
2022-10-14T14:58:25.645Z,4.90
2022-10-14T15:00:54.953Z,6.35
2022-10-14T15:03:27.725Z,8.80
2022-10-14T15:06:05.624Z,5.88
2022-10-14T15:08:37.038Z,4.85
2022-10-14T15:11:04.213Z,4.53
2022-10-14T15:13:32.792Z,5.53
2022-10-14T15:15:59.491Z,5.00
2022-10-14T15:18:28.255Z,5.30
2022-10-14T15:21:27.895Z,5.55
2022-10-14T15:23:56.273Z,5.70
2022-10-14T15:26:24.183Z,5.78
2022-10-14T15:32:12.351Z,5.00
2022-10-14T15:34:39.283Z,5.70
2022-10-14T15:37:06.103Z,5.30
2022-10-14T15:39:32.798Z,5.32
2022-10-14T15:41:59.914Z,5.45
2022-10-14T15:44:26.592Z,5.95
2022-10-14T15:47:11.936Z,6.18
2022-10-14T15:49:41.904Z,5.37
2022-10-14T15:52:14.500Z,5.90
2022-10-14T15:54:41.335Z,5.43
2022-10-14T15:57:10.099Z,5.25
2022-10-14T15:59:39.275Z,5.47
2022-10-14T16:02:19.194Z,5.65
2022-10-14T16:05:00.808Z,5.93
2022-10-14T16:07:33.401Z,5.57
2022-10-14T16:10:00.030Z,5.50
2022-10-14T16:12:26.750Z,5.80
2022-10-14T16:14:53.672Z,6.50
2022-10-14T16:17:20.737Z,5.53
2022-10-14T16:19:47.565Z,5.50
2022-10-14T16:22:14.934Z,5.15
2022-10-14T16:24:41.685Z,5.53
2022-10-14T16:27:08.240Z,5.38
2022-10-14T16:29:35.902Z,6.05
2022-10-14T16:32:03.148Z,5.05
2022-10-14T16:34:29.793Z,5.28
2022-10-14T16:36:56.467Z,5.45
2022-10-14T16:39:23.152Z,5.00
2022-10-14T16:41:50.021Z,5.47
2022-10-14T16:47:38.084Z,5.45
2022-10-14T16:50:05.622Z,5.85
2022-10-14T16:52:52.234Z,6.70
2022-10-14T16:55:19.199Z,7.95
2022-10-14T16:57:45.831Z,7.30
2022-10-14T17:02:48.312Z,8.10
2022-10-14T17:05:15.609Z,7.50
2022-10-14T17:07:43.432Z,7.72
2022-10-14T17:10:10.885Z,8.30
2022-10-14T17:12:38.300Z,7.18
2022-10-14T17:15:08.077Z,7.68
2022-10-14T17:17:39.096Z,7.75
2022-10-14T17:20:11.948Z,9.02
2022-10-14T17:22:38.594Z,9.75
2022-10-14T17:25:17.950Z,9.18
2022-10-14T17:27:44.946Z,9.70
2022-10-14T17:30:12.469Z,10.05
2022-10-14T17:32:39.108Z,9.70
2022-10-14T17:35:07.548Z,11.27
2022-10-14T17:37:36.147Z,9.23
2022-10-14T17:40:03.902Z,10.80
2022-10-14T17:42:31.117Z,10.45
2022-10-14T17:44:57.709Z,10.38
2022-10-14T17:47:24.545Z,11.77
2022-10-14T17:49:51.406Z,10.48
2022-10-14T17:52:18.063Z,11.75
2022-10-14T17:54:44.732Z,11.00
2022-10-14T17:57:11.330Z,11.15
2022-10-14T17:59:37.962Z,10.90
2022-10-14T18:02:04.822Z,13.55
2022-10-14T18:04:32.810Z,13.68
2022-10-14T18:06:59.732Z,12.63
2022-10-14T18:09:26.488Z,12.82
2022-10-14T18:12:09.832Z,12.18
2022-10-14T18:14:37.729Z,12.82
2022-10-14T18:17:05.843Z,12.60
2022-10-14T18:19:33.375Z,13.38
2022-10-14T18:22:00.476Z,13.60
2022-10-14T18:24:27.269Z,13.65
2022-10-14T18:26:53.922Z,14.05
2022-10-14T18:29:21.116Z,14.48
2022-10-14T18:34:22.876Z,14.98
2022-10-14T18:36:49.577Z,13.75
2022-10-14T18:39:16.471Z,13.93
2022-10-14T18:41:44.349Z,13.85
2022-10-14T18:44:11.137Z,12.85
2022-10-14T18:46:39.425Z,14.57
2022-10-14T18:49:08.165Z,12.98
2022-10-14T18:51:37.376Z,13.18
2022-10-14T18:54:06.940Z,14.13
2022-10-14T18:56:38.291Z,13.20
2022-10-14T18:59:09.114Z,13.30
2022-10-14T19:01:38.417Z,13.80
2022-10-14T19:04:06.807Z,13.02
2022-10-14T19:06:34.881Z,16.10
2022-10-14T19:09:03.538Z,14.65
2022-10-14T19:11:34.527Z,13.52
2022-10-14T19:14:04.475Z,14.32
2022-10-14T19:16:34.221Z,13.60
2022-10-14T19:19:16.808Z,12.70
2022-10-14T19:21:49.526Z,14.38
2022-10-14T19:24:16.760Z,13.75
2022-10-14T19:26:45.610Z,14.63
2022-10-14T19:29:14.475Z,15.25
2022-10-14T19:31:42.031Z,14.63
2022-10-14T19:34:11.747Z,15.80
2022-10-14T19:36:39.991Z,14.55
2022-10-14T19:39:08.932Z,15.63
2022-10-14T19:41:43.272Z,15.65
2022-10-14T19:44:11.712Z,15.63
2022-10-14T19:46:38.859Z,14.25
2022-10-14T19:49:06.221Z,15.23
2022-10-14T19:51:34.384Z,14.82
2022-10-14T19:54:01.183Z,16.50
2022-10-14T19:56:28.577Z,15.65
2022-10-14T19:58:57.754Z,16.05
2022-10-14T20:01:27.119Z,15.75
2022-10-14T20:03:54.378Z,17.75
2022-10-14T20:06:22.832Z,17.58
2022-10-14T20:08:50.166Z,17.15
2022-10-14T20:11:19.172Z,16.92
2022-10-14T20:13:46.345Z,16.25
2022-10-14T20:16:13.861Z,17.10
2022-10-14T20:18:41.133Z,16.52
2022-10-14T20:21:10.261Z,17.23
2022-10-14T20:23:38.484Z,18.02
2022-10-14T20:26:13.694Z,21.95
2022-10-14T20:28:40.826Z,19.60
2022-10-14T20:31:13.190Z,24.27
2022-10-14T20:33:39.911Z,17.73
2022-10-14T20:36:12.666Z,16.52
2022-10-14T20:38:40.100Z,17.45
2022-10-14T20:41:11.860Z,17.10
2022-10-14T20:43:41.859Z,17.48
2022-10-14T20:46:08.531Z,18.52
2022-10-14T20:48:35.345Z,18.05
2022-10-14T20:51:05.897Z,20.27
2022-10-14T20:53:33.007Z,19.10
2022-10-14T20:56:08.541Z,18.38
2022-10-14T20:58:35.669Z,18.38
2022-10-14T21:01:09.472Z,18.77
2022-10-14T21:03:36.375Z,19.65
2022-10-14T21:06:10.002Z,19.20
2022-10-14T21:08:36.909Z,18.73
2022-10-14T21:11:10.497Z,17.42
2022-10-14T21:13:43.025Z,16.13
2022-10-14T21:16:13.469Z,17.10
2022-10-14T21:18:40.101Z,16.52
2022-10-14T21:21:06.795Z,16.95
2022-10-14T21:23:34.602Z,16.52
2022-10-14T21:26:01.214Z,16.52
2022-10-14T21:28:28.082Z,15.73
2022-10-14T21:30:54.730Z,16.23
2022-10-14T21:33:21.370Z,14.40
2022-10-14T21:35:48.058Z,14.48
2022-10-14T21:38:14.720Z,15.82
2022-10-14T21:40:41.327Z,14.82
2022-10-14T21:43:08.165Z,17.30
2022-10-14T21:45:34.831Z,15.00
2022-10-14T21:48:01.449Z,16.95
2022-10-14T21:50:28.104Z,16.90
2022-10-14T21:52:54.877Z,15.00
2022-10-14T21:55:21.472Z,18.05
2022-10-14T21:57:48.431Z,16.08
2022-10-14T22:00:15.219Z,15.52
2022-10-14T22:02:41.832Z,16.25
2022-10-14T22:05:08.848Z,17.05
2022-10-14T22:07:35.496Z,18.45
2022-10-14T22:10:02.200Z,16.88
2022-10-14T22:12:30.056Z,15.52
2022-10-14T22:14:56.680Z,15.98
2022-10-14T22:17:23.551Z,16.05
2022-10-14T22:19:50.550Z,16.80
2022-10-14T22:22:17.136Z,17.27
2022-10-14T22:24:43.748Z,15.48
2022-10-14T22:27:10.409Z,17.05
2022-10-14T22:29:37.704Z,16.88
2022-10-14T22:32:04.618Z,17.38
2022-10-14T22:34:31.317Z,16.17
2022-10-14T22:36:59.570Z,16.73
2022-10-14T22:39:27.207Z,17.25
2022-10-14T22:41:53.956Z,17.25
2022-10-14T22:44:20.603Z,15.52
2022-10-14T22:46:47.272Z,16.60
2022-10-14T22:49:13.939Z,16.08
2022-10-14T22:51:40.945Z,16.85
2022-10-14T22:54:08.437Z,16.52
2022-10-14T22:56:35.127Z,15.63
2022-10-14T22:59:07.531Z,16.80
2022-10-14T23:01:34.713Z,16.40
2022-10-14T23:04:02.002Z,16.75
2022-10-14T23:06:29.412Z,16.08
2022-10-14T23:08:57.412Z,15.27
2022-10-14T23:11:25.198Z,15.60
2022-10-14T23:13:52.705Z,15.18
2022-10-14T23:16:22.124Z,17.02
2022-10-14T23:18:49.673Z,15.93
2022-10-14T23:21:28.309Z,15.68
2022-10-14T23:23:59.969Z,17.45
2022-10-14T23:26:28.912Z,15.23
2022-10-14T23:28:57.874Z,16.42
2022-10-14T23:31:26.759Z,18.60
2022-10-14T23:33:54.463Z,17.02
2022-10-14T23:36:22.656Z,16.30
2022-10-14T23:38:50.263Z,17.35
2022-10-14T23:41:17.001Z,17.85
2022-10-14T23:43:43.786Z,16.90
2022-10-14T23:46:10.919Z,16.98
2022-10-14T23:48:37.710Z,16.58
2022-10-14T23:51:04.761Z,15.05
2022-10-14T23:53:34.744Z,16.08
2022-10-14T23:56:04.848Z,16.17
2022-10-14T23:58:38.859Z,16.90
